createdAt,value
2018-12-03T00:04:37.906Z,0.53
2018-12-03T00:09:40.867Z,0.40
2018-12-03T00:14:44.080Z,0.57
2018-12-03T00:19:47.287Z,0.60
2018-12-03T00:24:50.481Z,0.50
2018-12-03T00:29:53.629Z,0.57
2018-12-03T00:34:56.812Z,0.50
2018-12-03T00:39:59.981Z,0.60
2018-12-03T00:45:03.199Z,0.67
2018-12-03T00:50:06.454Z,0.40
2018-12-03T00:55:09.661Z,0.43
2018-12-03T01:00:12.857Z,0.60
2018-12-03T01:05:16.077Z,0.50
2018-12-03T01:10:19.267Z,0.68
2018-12-03T01:15:22.482Z,0.40
2018-12-03T01:20:25.682Z,0.70
2018-12-03T01:25:28.890Z,0.53
2018-12-03T01:30:32.127Z,0.45
2018-12-03T01:35:35.298Z,0.70
2018-12-03T01:40:38.441Z,0.40
2018-12-03T01:45:41.628Z,0.60
2018-12-03T01:50:44.846Z,0.50
2018-12-03T01:55:48.043Z,0.50
2018-12-03T02:00:51.245Z,0.60
2018-12-03T02:05:54.459Z,0.40
2018-12-03T02:10:57.675Z,0.50
2018-12-03T02:16:00.872Z,0.57
2018-12-03T02:21:04.089Z,0.40
2018-12-03T02:26:07.297Z,0.57
2018-12-03T02:31:10.490Z,0.60
2018-12-03T02:36:13.725Z,0.50
2018-12-03T02:41:16.914Z,0.50
2018-12-03T02:46:20.142Z,0.50
2018-12-03T02:51:23.334Z,0.50
2018-12-03T02:56:26.554Z,0.60
2018-12-03T03:01:29.746Z,0.43
2018-12-03T03:06:32.978Z,0.40
2018-12-03T03:11:36.161Z,0.40
2018-12-03T03:16:39.373Z,0.53
2018-12-03T03:21:42.581Z,0.60
2018-12-03T03:26:45.790Z,0.50
2018-12-03T03:31:49.003Z,0.50
2018-12-03T03:36:52.206Z,0.47
2018-12-03T03:41:55.346Z,0.40
2018-12-03T03:46:58.522Z,0.70
2018-12-03T03:52:01.742Z,0.53
2018-12-03T03:57:05.150Z,0.40
2018-12-03T04:02:08.355Z,0.40
2018-12-03T04:07:11.553Z,0.50
2018-12-03T04:12:14.774Z,0.43
2018-12-03T04:17:17.987Z,0.70
2018-12-03T04:22:21.181Z,0.40
2018-12-03T04:27:24.403Z,0.50
2018-12-03T04:32:27.604Z,0.50
2018-12-03T04:37:30.817Z,0.43
2018-12-03T04:42:34.042Z,0.50
2018-12-03T04:47:37.450Z,0.40
2018-12-03T04:52:40.659Z,0.53
2018-12-03T04:57:43.858Z,0.70
2018-12-03T05:02:49.426Z,0.50
2018-12-03T05:07:52.641Z,0.50
2018-12-03T05:12:55.865Z,0.67
2018-12-03T05:17:59.073Z,0.50
2018-12-03T05:23:02.271Z,0.60
2018-12-03T05:28:05.594Z,0.40
2018-12-03T05:33:08.766Z,0.50
2018-12-03T05:38:12.015Z,0.47
2018-12-03T05:43:15.213Z,0.40
2018-12-03T05:48:18.427Z,0.70
2018-12-03T05:53:21.622Z,0.70
2018-12-03T05:58:24.845Z,0.50
2018-12-03T06:03:28.034Z,0.53
2018-12-03T06:08:31.247Z,0.60
2018-12-03T06:13:34.466Z,0.60
2018-12-03T06:18:37.657Z,0.43
2018-12-03T06:23:40.886Z,0.60
2018-12-03T06:28:44.088Z,0.50
2018-12-03T06:33:47.297Z,0.43
2018-12-03T06:38:50.506Z,0.50
2018-12-03T06:43:53.669Z,0.50
2018-12-03T06:48:56.834Z,0.60
2018-12-03T06:54:00.030Z,0.50
2018-12-03T06:59:03.242Z,0.60
2018-12-03T07:04:06.553Z,0.57
2018-12-03T07:09:11.609Z,0.57
2018-12-03T07:14:14.776Z,0.43
2018-12-03T07:19:18.019Z,0.80
2018-12-03T07:24:21.235Z,0.60
2018-12-03T07:29:24.438Z,0.33
2018-12-03T07:34:27.641Z,0.40
2018-12-03T07:39:30.846Z,0.20
2018-12-03T07:44:34.053Z,0.20
2018-12-03T07:49:37.261Z,0.30
2018-12-03T07:54:40.462Z,0.30
2018-12-03T07:59:43.783Z,0.20
2018-12-03T08:04:46.997Z,0.20
2018-12-03T08:09:50.206Z,0.30
2018-12-03T08:14:53.413Z,0.30
2018-12-03T08:19:56.690Z,0.20
2018-12-03T08:24:59.834Z,0.20
2018-12-03T08:30:03.490Z,0.23
2018-12-03T08:35:10.954Z,0.30
2018-12-03T08:40:16.317Z,0.10
2018-12-03T08:45:20.053Z,0.50
2018-12-03T08:50:28.233Z,0.40
2018-12-03T08:55:31.474Z,0.20
2018-12-03T09:00:34.678Z,0.20
2018-12-03T09:05:39.133Z,0.30
2018-12-03T09:10:43.357Z,0.47
2018-12-03T09:15:54.146Z,0.27
2018-12-03T09:20:58.165Z,0.53
2018-12-03T09:26:01.382Z,0.30
2018-12-03T09:31:04.700Z,0.40
2018-12-03T09:36:07.890Z,0.30
2018-12-03T09:41:11.110Z,0.50
2018-12-03T09:46:14.328Z,0.30
2018-12-03T09:51:17.518Z,0.30
2018-12-03T09:56:20.733Z,0.37
2018-12-03T10:01:23.933Z,0.40
2018-12-03T10:06:27.149Z,0.30
2018-12-03T10:11:30.363Z,0.40
2018-12-03T10:16:33.555Z,0.30
2018-12-03T10:21:36.863Z,0.40
2018-12-03T10:26:40.178Z,0.20
2018-12-03T10:31:43.381Z,0.50
2018-12-03T10:36:52.622Z,0.60
2018-12-03T10:41:57.894Z,0.40
2018-12-03T10:47:01.105Z,0.50
2018-12-03T10:52:04.318Z,0.30
2018-12-03T10:57:08.846Z,0.30
2018-12-03T11:02:17.266Z,0.40
2018-12-03T11:07:20.476Z,0.40
2018-12-03T11:12:23.694Z,0.42
2018-12-03T11:17:26.910Z,0.50
2018-12-03T11:22:30.110Z,0.30
2018-12-03T11:27:35.979Z,0.53
2018-12-03T11:32:39.194Z,0.43
2018-12-03T11:37:44.150Z,0.50
2018-12-03T11:42:47.346Z,0.50
2018-12-03T11:47:50.493Z,0.30
2018-12-03T11:52:53.662Z,0.40
2018-12-03T11:57:56.874Z,0.37
2018-12-03T12:03:00.075Z,0.40
2018-12-03T12:08:03.300Z,0.70
2018-12-03T12:13:06.498Z,0.53
2018-12-03T12:18:09.703Z,0.40
2018-12-03T12:23:12.857Z,0.43
2018-12-03T12:28:16.009Z,0.30
2018-12-03T12:33:19.218Z,0.30
2018-12-03T12:38:22.434Z,0.40
2018-12-03T12:43:25.638Z,0.30
2018-12-03T12:48:28.794Z,0.10
2018-12-03T12:53:31.970Z,0.20
2018-12-03T12:58:35.167Z,0.20
2018-12-03T13:03:38.381Z,0.50
2018-12-03T13:08:41.578Z,0.50
2018-12-03T13:13:44.798Z,0.33
2018-12-03T13:18:47.998Z,0.25
2018-12-03T13:23:51.200Z,0.50
2018-12-03T13:28:54.418Z,0.57
2018-12-03T13:33:57.634Z,0.50
2018-12-03T13:39:00.870Z,1.03
2018-12-03T13:44:04.077Z,0.42
2018-12-03T13:49:08.073Z,0.50
2018-12-03T13:54:11.274Z,0.40
2018-12-03T13:59:14.422Z,0.80
2018-12-03T14:04:17.588Z,0.57
2018-12-03T14:09:30.561Z,0.73
2018-12-03T14:14:44.519Z,0.20
2018-12-03T14:19:51.286Z,0.47
2018-12-03T14:24:54.488Z,0.30
2018-12-03T14:29:57.697Z,0.40
2018-12-03T14:35:00.905Z,0.30
2018-12-03T14:40:04.741Z,0.45
2018-12-03T14:45:11.014Z,0.20
2018-12-03T14:50:14.209Z,0.40
2018-12-03T14:55:17.479Z,0.40
2018-12-03T15:00:20.637Z,0.40
2018-12-03T15:05:23.853Z,0.40
2018-12-03T15:10:27.008Z,0.70
2018-12-03T15:15:30.162Z,0.40
2018-12-03T15:20:33.366Z,0.37
2018-12-03T15:25:36.579Z,0.20
2018-12-03T15:30:39.745Z,0.30
2018-12-03T15:35:42.898Z,0.30
2018-12-03T15:40:46.108Z,0.60
2018-12-03T15:45:49.310Z,0.27
2018-12-03T15:50:52.509Z,0.40
2018-12-03T15:55:55.726Z,0.55
2018-12-03T16:00:58.877Z,0.50
2018-12-03T16:06:02.039Z,0.35
2018-12-03T16:11:05.195Z,0.40
2018-12-03T16:16:08.355Z,0.30
2018-12-03T16:21:11.561Z,0.47
2018-12-03T16:26:14.764Z,0.43
2018-12-03T16:31:18.006Z,0.20
2018-12-03T16:36:21.644Z,0.30
2018-12-03T16:41:24.810Z,0.33
2018-12-03T16:46:28.017Z,0.20
2018-12-03T16:51:31.218Z,0.62
2018-12-03T16:56:34.438Z,1.05
2018-12-03T17:01:37.634Z,1.97
2018-12-03T17:06:40.853Z,1.92
2018-12-03T17:11:44.567Z,1.43
2018-12-03T17:16:47.773Z,1.70
2018-12-03T17:22:05.318Z,1.77
2018-12-03T17:27:08.542Z,1.53
2018-12-03T17:32:11.697Z,1.33
2018-12-03T17:37:14.858Z,1.30
2018-12-03T17:42:18.063Z,1.57
2018-12-03T17:47:21.274Z,1.70
2018-12-03T17:52:24.466Z,1.40
2018-12-03T17:57:27.673Z,1.73
2018-12-03T18:02:31.608Z,1.32
2018-12-03T18:07:34.824Z,1.40
2018-12-03T18:12:38.038Z,1.40
2018-12-03T18:17:41.209Z,1.27
2018-12-03T18:22:44.434Z,1.17
2018-12-03T18:27:47.662Z,1.70
2018-12-03T18:32:50.877Z,1.40
2018-12-03T18:37:54.066Z,1.10
2018-12-03T18:42:57.266Z,0.90
2018-12-03T18:48:00.506Z,1.53
2018-12-03T18:53:10.662Z,1.00
2018-12-03T18:58:16.230Z,1.17
2018-12-03T19:03:19.386Z,0.78
2018-12-03T19:08:22.534Z,0.93
2018-12-03T19:13:25.746Z,0.80
2018-12-03T19:18:28.946Z,0.80
2018-12-03T19:23:32.151Z,1.00
2018-12-03T19:28:35.361Z,1.00
2018-12-03T19:33:38.569Z,0.80
2018-12-03T19:38:41.774Z,0.70
2018-12-03T19:43:44.986Z,0.70
2018-12-03T19:48:48.190Z,0.75
2018-12-03T19:54:20.532Z,0.70
2018-12-03T19:59:23.274Z,0.70
2018-12-03T20:04:31.350Z,0.80
2018-12-03T20:09:33.830Z,0.60
2018-12-03T20:14:36.326Z,0.43
2018-12-03T20:19:38.871Z,0.57
2018-12-03T20:24:41.800Z,0.55
2018-12-03T20:29:44.510Z,0.70
2018-12-03T20:34:46.986Z,0.68
2018-12-03T20:39:53.301Z,0.90
2018-12-03T20:44:56.023Z,0.72
2018-12-03T20:49:59.321Z,0.70
2018-12-03T20:55:01.896Z,0.50
2018-12-03T21:00:07.942Z,0.70
2018-12-03T21:05:10.614Z,0.73
2018-12-03T21:10:13.210Z,0.97
2018-12-03T21:15:15.718Z,0.75
2018-12-03T21:20:18.215Z,0.83
2018-12-03T21:25:21.028Z,0.62
2018-12-03T21:30:23.586Z,0.62
2018-12-03T21:35:26.081Z,0.70
2018-12-03T21:40:28.556Z,0.53
2018-12-03T21:45:31.034Z,0.80
2018-12-03T21:50:33.658Z,1.03
2018-12-03T21:55:36.278Z,0.70
2018-12-03T22:00:39.327Z,0.60
2018-12-03T22:05:41.829Z,0.67
2018-12-03T22:10:44.302Z,0.60
2018-12-03T22:15:46.773Z,0.70
2018-12-03T22:20:49.433Z,0.57
2018-12-03T22:25:52.556Z,0.93
2018-12-03T22:30:55.137Z,0.70
2018-12-03T22:35:57.635Z,0.50
2018-12-03T22:41:00.786Z,0.60
2018-12-03T22:46:04.026Z,0.57
2018-12-03T22:51:06.518Z,0.75
2018-12-03T22:56:09.013Z,0.47
2018-12-03T23:01:13.501Z,0.50
2018-12-03T23:06:16.049Z,0.53
2018-12-03T23:11:18.642Z,0.70
2018-12-03T23:16:21.237Z,0.50
2018-12-03T23:21:23.829Z,0.70
2018-12-03T23:26:26.431Z,0.40
2018-12-03T23:31:28.962Z,0.50
2018-12-03T23:36:31.514Z,0.60
2018-12-03T23:41:34.107Z,0.40
2018-12-03T23:46:36.698Z,0.50
2018-12-03T23:51:39.192Z,0.60
2018-12-03T23:56:41.748Z,0.40
